createdAt,value
2023-08-26T00:02:17.448Z,30.48
2023-08-26T00:05:19.541Z,18.50
2023-08-26T00:08:21.622Z,15.02
2023-08-26T00:11:23.743Z,11.00
2023-08-26T00:14:25.790Z,7.90
2023-08-26T00:17:28.029Z,6.18
2023-08-26T00:20:30.696Z,5.25
2023-08-26T00:23:32.744Z,6.97
2023-08-26T00:26:35.566Z,4.03
2023-08-26T00:29:37.712Z,3.42
2023-08-26T00:32:39.850Z,3.03
2023-08-26T00:35:41.951Z,3.72
2023-08-26T00:38:44.259Z,4.15
2023-08-26T00:41:46.327Z,4.03
2023-08-26T00:44:48.372Z,2.97
2023-08-26T00:47:50.601Z,1.92
2023-08-26T00:50:55.228Z,1.95
2023-08-26T00:53:57.637Z,2.63
2023-08-26T00:57:00.097Z,2.40
2023-08-26T01:00:03.254Z,2.65
2023-08-26T01:03:05.566Z,2.92
2023-08-26T01:06:07.782Z,3.58
2023-08-26T01:09:09.958Z,3.53
2023-08-26T01:12:19.498Z,3.88
2023-08-26T01:15:22.443Z,3.80
2023-08-26T01:18:25.441Z,2.72
2023-08-26T01:21:37.601Z,3.08
2023-08-26T01:24:41.088Z,2.85
2023-08-26T01:27:43.203Z,2.95
2023-08-26T01:30:45.519Z,2.75
2023-08-26T01:33:58.802Z,2.63
2023-08-26T01:37:04.067Z,2.35
2023-08-26T01:40:10.128Z,2.30
2023-08-26T01:43:12.896Z,2.70
2023-08-26T01:46:17.908Z,2.47
2023-08-26T01:49:20.102Z,2.72
2023-08-26T01:52:22.243Z,2.70
2023-08-26T01:55:24.373Z,2.28
2023-08-26T01:58:26.612Z,2.72
2023-08-26T02:01:28.790Z,3.17
2023-08-26T02:04:30.877Z,2.65
2023-08-26T02:07:32.909Z,2.97
2023-08-26T02:10:35.201Z,2.30
2023-08-26T02:13:37.979Z,2.28
2023-08-26T02:16:40.192Z,2.88
2023-08-26T02:19:42.439Z,2.38
2023-08-26T02:22:44.582Z,2.47
2023-08-26T02:25:47.596Z,2.78
2023-08-26T02:28:49.709Z,2.78
2023-08-26T02:31:51.783Z,4.18
2023-08-26T02:34:53.909Z,3.15
2023-08-26T02:37:56.149Z,2.65
2023-08-26T02:40:58.982Z,2.85
2023-08-26T02:44:02.302Z,2.65
2023-08-26T02:47:04.527Z,3.00
2023-08-26T02:50:07.233Z,3.30
2023-08-26T02:53:10.219Z,2.67
2023-08-26T02:56:12.258Z,3.15
2023-08-26T02:59:14.328Z,2.35
2023-08-26T03:02:17.097Z,3.03
2023-08-26T03:05:19.228Z,2.55
2023-08-26T03:08:21.277Z,2.75
2023-08-26T03:11:23.628Z,2.75
2023-08-26T03:14:26.067Z,2.08
2023-08-26T03:17:28.514Z,3.08
2023-08-26T03:20:31.373Z,3.17
2023-08-26T03:23:34.090Z,3.00
2023-08-26T03:26:36.131Z,2.92
2023-08-26T03:29:38.245Z,3.42
2023-08-26T03:32:40.532Z,2.83
2023-08-26T03:35:43.014Z,3.03
2023-08-26T03:38:45.077Z,2.38
2023-08-26T03:41:47.200Z,2.35
2023-08-26T03:44:49.235Z,3.03
2023-08-26T03:47:51.284Z,3.38
2023-08-26T03:50:58.619Z,3.22
2023-08-26T03:54:00.760Z,2.53
2023-08-26T03:57:03.693Z,2.70
2023-08-26T04:00:06.331Z,2.90
2023-08-26T04:03:08.784Z,3.60
2023-08-26T04:06:10.871Z,1.85
2023-08-26T04:09:13.816Z,1.85
2023-08-26T04:12:15.883Z,2.15
2023-08-26T04:15:27.512Z,3.50
2023-08-26T04:18:32.476Z,2.15
2023-08-26T04:21:34.662Z,2.40
2023-08-26T04:24:36.868Z,2.50
2023-08-26T04:27:39.178Z,3.63
2023-08-26T04:30:42.134Z,2.17
2023-08-26T04:33:45.128Z,2.90
2023-08-26T04:36:47.191Z,2.95
2023-08-26T04:39:50.146Z,2.83
2023-08-26T04:42:52.568Z,2.25
2023-08-26T04:45:56.498Z,2.80
2023-08-26T04:48:58.746Z,3.22
2023-08-26T04:52:01.263Z,3.35
2023-08-26T04:55:05.448Z,2.58
2023-08-26T05:01:12.423Z,3.08
2023-08-26T05:04:14.536Z,2.08
2023-08-26T05:07:16.702Z,2.30
2023-08-26T05:10:18.875Z,2.70
2023-08-26T05:13:21.187Z,1.95
2023-08-26T05:16:23.343Z,2.60
2023-08-26T05:19:25.441Z,2.40
2023-08-26T05:22:27.783Z,2.80
2023-08-26T05:25:29.973Z,2.50
2023-08-26T05:28:32.035Z,2.78
2023-08-26T05:31:34.233Z,3.40
2023-08-26T05:34:37.315Z,2.63
2023-08-26T05:37:44.746Z,2.97
2023-08-26T05:40:46.844Z,3.08
2023-08-26T05:43:49.434Z,2.80
2023-08-26T05:46:51.708Z,2.70
2023-08-26T05:49:53.861Z,2.42
2023-08-26T05:52:57.271Z,2.38
2023-08-26T05:56:00.042Z,2.45
2023-08-26T05:59:02.132Z,3.33
2023-08-26T06:02:04.324Z,1.83
2023-08-26T06:05:06.874Z,2.30
2023-08-26T06:08:08.977Z,3.33
2023-08-26T06:11:11.063Z,2.63
2023-08-26T06:14:13.146Z,2.63
2023-08-26T06:17:15.320Z,2.28
2023-08-26T06:20:17.509Z,2.00
2023-08-26T06:23:20.300Z,2.47
2023-08-26T06:26:22.392Z,3.90
2023-08-26T06:29:25.619Z,2.03
2023-08-26T06:32:27.805Z,1.75
2023-08-26T06:35:30.091Z,2.33
2023-08-26T06:38:32.393Z,1.75
2023-08-26T06:41:34.830Z,1.95
2023-08-26T06:44:36.949Z,2.10
2023-08-26T06:47:40.476Z,2.47
2023-08-26T06:50:43.168Z,1.80
2023-08-26T06:53:45.186Z,2.13
2023-08-26T06:56:47.239Z,2.67
2023-08-26T06:59:49.342Z,1.98
2023-08-26T07:02:51.520Z,2.15
2023-08-26T07:05:53.833Z,2.10
2023-08-26T07:08:57.325Z,1.50
2023-08-26T07:12:01.262Z,1.30
2023-08-26T07:15:05.622Z,1.73
2023-08-26T07:18:08.025Z,2.38
2023-08-26T07:21:10.268Z,2.13
2023-08-26T07:24:12.824Z,1.55
2023-08-26T07:27:15.031Z,1.77
2023-08-26T07:30:17.875Z,1.80
2023-08-26T07:33:20.223Z,2.03
2023-08-26T07:36:22.360Z,2.22
2023-08-26T07:39:25.642Z,1.83
2023-08-26T07:45:30.814Z,2.63
2023-08-26T07:51:38.275Z,1.40
2023-08-26T07:54:40.360Z,1.42
2023-08-26T07:57:43.119Z,1.15
2023-08-26T08:00:46.347Z,1.15
2023-08-26T08:03:48.890Z,1.83
2023-08-26T08:06:51.069Z,1.00
2023-08-26T08:09:54.626Z,2.00
2023-08-26T08:12:57.167Z,1.63
2023-08-26T08:15:59.592Z,1.17
2023-08-26T08:19:01.762Z,1.45
2023-08-26T08:22:04.007Z,1.10
2023-08-26T08:25:07.388Z,1.92
2023-08-26T08:28:09.578Z,1.75
2023-08-26T08:31:11.785Z,1.90
2023-08-26T08:34:14.443Z,0.93
2023-08-26T08:37:16.774Z,1.10
2023-08-26T08:40:23.093Z,1.40
2023-08-26T08:43:28.641Z,1.63
2023-08-26T08:46:31.269Z,1.55
2023-08-26T08:49:35.309Z,1.38
2023-08-26T08:52:40.402Z,0.90
2023-08-26T08:55:42.633Z,1.10
2023-08-26T08:58:52.440Z,1.40
2023-08-26T09:01:56.852Z,1.92
2023-08-26T09:04:59.772Z,0.82
2023-08-26T09:08:03.884Z,0.77
2023-08-26T09:11:06.678Z,0.90
2023-08-26T09:14:08.887Z,2.10
2023-08-26T09:17:18.922Z,1.40
2023-08-26T09:20:21.111Z,1.50
2023-08-26T09:23:23.365Z,0.88
2023-08-26T09:26:28.394Z,0.93
2023-08-26T09:29:32.726Z,1.13
2023-08-26T09:32:36.774Z,1.42
2023-08-26T09:38:54.500Z,1.48
2023-08-26T09:41:58.359Z,1.10
2023-08-26T09:45:00.495Z,1.02
2023-08-26T09:48:02.744Z,1.35
2023-08-26T09:51:09.029Z,1.20
2023-08-26T09:54:11.499Z,1.73
2023-08-26T09:57:13.664Z,1.20
2023-08-26T10:00:18.216Z,0.52
2023-08-26T10:03:34.385Z,0.90
2023-08-26T10:06:59.946Z,0.75
2023-08-26T10:10:08.441Z,0.90
2023-08-26T10:13:10.728Z,1.02
2023-08-26T10:16:23.012Z,1.45
2023-08-26T10:19:31.090Z,1.00
2023-08-26T10:22:33.959Z,0.77
2023-08-26T10:25:36.425Z,1.70
2023-08-26T10:28:39.144Z,1.00
2023-08-26T10:31:43.828Z,1.25
2023-08-26T10:34:59.565Z,1.40
2023-08-26T10:38:15.615Z,1.00
2023-08-26T10:41:17.909Z,1.35
2023-08-26T10:44:32.037Z,1.30
2023-08-26T10:47:42.076Z,0.90
2023-08-26T10:50:58.464Z,0.65
2023-08-26T10:54:04.812Z,1.40
2023-08-26T10:57:08.634Z,1.52
2023-08-26T11:00:11.463Z,1.48
2023-08-26T11:03:15.814Z,1.60
2023-08-26T11:06:40.537Z,1.52
2023-08-26T11:09:42.790Z,1.35
2023-08-26T11:12:48.298Z,2.10
2023-08-26T11:15:53.880Z,1.25
2023-08-26T11:18:58.352Z,0.88
2023-08-26T11:22:10.036Z,1.10
2023-08-26T11:25:21.926Z,1.38
2023-08-26T11:28:26.284Z,1.15
2023-08-26T11:31:30.178Z,1.38
2023-08-26T11:34:32.669Z,1.20
2023-08-26T11:37:45.101Z,1.45
2023-08-26T11:40:49.109Z,1.23
2023-08-26T11:43:51.197Z,1.13
2023-08-26T11:46:56.986Z,1.13
2023-08-26T11:49:59.246Z,0.85
2023-08-26T11:53:06.178Z,0.65
2023-08-26T11:56:08.656Z,1.70
2023-08-26T11:59:21.116Z,1.17
2023-08-26T12:02:25.972Z,0.82
2023-08-26T12:05:28.265Z,0.70
2023-08-26T12:08:30.327Z,1.20
2023-08-26T12:11:39.477Z,1.30
2023-08-26T12:14:41.892Z,1.70
2023-08-26T12:17:47.797Z,1.30
2023-08-26T12:20:51.309Z,1.45
2023-08-26T12:23:53.366Z,1.38
2023-08-26T12:26:55.804Z,1.17
2023-08-26T12:29:57.910Z,1.48
2023-08-26T12:33:00.021Z,0.85
2023-08-26T12:36:02.207Z,1.00
2023-08-26T12:39:04.654Z,0.98
2023-08-26T12:42:06.787Z,1.45
2023-08-26T12:45:10.476Z,1.10
2023-08-26T12:48:15.156Z,0.80
2023-08-26T12:51:19.496Z,0.65
2023-08-26T12:54:21.544Z,0.98
2023-08-26T12:57:23.683Z,0.90
2023-08-26T13:00:25.862Z,1.08
2023-08-26T13:03:28.163Z,1.10
2023-08-26T13:06:30.894Z,1.17
2023-08-26T13:09:33.033Z,1.75
2023-08-26T13:12:35.532Z,1.67
2023-08-26T13:15:43.739Z,1.35
2023-08-26T13:18:45.945Z,1.63
2023-08-26T13:21:50.620Z,1.52
2023-08-26T13:24:52.854Z,1.10
2023-08-26T13:27:55.150Z,1.13
2023-08-26T13:30:57.850Z,0.95
2023-08-26T13:33:59.993Z,1.00
2023-08-26T13:37:02.180Z,1.00
2023-08-26T13:40:04.631Z,2.20
2023-08-26T13:43:06.698Z,1.85
2023-08-26T13:46:08.828Z,1.55
2023-08-26T13:49:10.920Z,2.50
2023-08-26T13:52:14.173Z,1.05
2023-08-26T13:55:16.380Z,1.38
2023-08-26T13:58:22.844Z,1.60
2023-08-26T14:01:25.310Z,1.13
2023-08-26T14:04:27.570Z,1.83
2023-08-26T14:07:29.680Z,1.17
2023-08-26T14:10:31.817Z,1.35
2023-08-26T14:13:33.944Z,1.45
2023-08-26T14:16:36.322Z,0.80
2023-08-26T14:19:39.399Z,0.63
2023-08-26T14:22:41.481Z,1.33
2023-08-26T14:25:44.246Z,1.65
2023-08-26T14:28:46.353Z,0.73
2023-08-26T14:31:48.390Z,1.25
2023-08-26T14:34:50.445Z,0.90
2023-08-26T14:37:54.033Z,1.23
2023-08-26T14:40:56.368Z,1.10
2023-08-26T14:43:58.466Z,1.80
2023-08-26T14:47:00.884Z,0.90
2023-08-26T14:50:03.156Z,1.08
2023-08-26T14:53:08.004Z,1.15
2023-08-26T14:56:10.363Z,1.60
2023-08-26T14:59:12.407Z,1.98
2023-08-26T15:02:17.264Z,1.70
2023-08-26T15:05:19.416Z,1.33
2023-08-26T15:08:21.538Z,1.05
2023-08-26T15:11:23.631Z,0.85
2023-08-26T15:14:25.753Z,1.25
2023-08-26T15:17:27.899Z,0.98
2023-08-26T15:20:29.994Z,1.42
2023-08-26T15:23:32.145Z,0.95
2023-08-26T15:26:34.245Z,1.40
2023-08-26T15:29:36.263Z,1.13
2023-08-26T15:32:38.466Z,0.90
2023-08-26T15:35:41.748Z,1.70
2023-08-26T15:38:43.928Z,1.42
2023-08-26T15:41:46.052Z,1.23
2023-08-26T15:44:48.181Z,1.65
2023-08-26T15:47:51.473Z,1.35
2023-08-26T15:50:53.911Z,0.90
2023-08-26T15:53:56.076Z,1.67
2023-08-26T15:56:58.206Z,1.75
2023-08-26T16:00:00.273Z,0.95
2023-08-26T16:03:02.709Z,1.27
2023-08-26T16:06:10.868Z,1.75
2023-08-26T16:09:13.645Z,1.15
2023-08-26T16:12:17.873Z,1.70
2023-08-26T16:15:20.110Z,0.90
2023-08-26T16:18:23.258Z,1.13
2023-08-26T16:21:25.808Z,0.75
2023-08-26T16:24:27.872Z,1.35
2023-08-26T16:27:30.015Z,1.60
2023-08-26T16:30:32.067Z,1.42
2023-08-26T16:33:34.191Z,3.00
2023-08-26T16:36:36.317Z,1.50
2023-08-26T16:39:38.483Z,1.50
2023-08-26T16:42:40.632Z,1.30
2023-08-26T16:45:42.749Z,1.50
2023-08-26T16:48:45.067Z,1.10
2023-08-26T16:51:47.161Z,1.35
2023-08-26T16:54:50.244Z,2.15
2023-08-26T16:57:52.488Z,1.30
2023-08-26T17:00:54.786Z,1.05
2023-08-26T17:03:57.816Z,0.95
2023-08-26T17:07:01.253Z,1.40
2023-08-26T17:10:03.492Z,1.70
2023-08-26T17:13:05.713Z,1.13
2023-08-26T17:16:08.629Z,1.48
2023-08-26T17:19:11.446Z,1.50
2023-08-26T17:22:13.562Z,0.98
2023-08-26T17:25:15.690Z,1.33
2023-08-26T17:28:18.832Z,1.33
2023-08-26T17:31:21.032Z,1.33
2023-08-26T17:34:23.211Z,1.65
2023-08-26T17:37:25.501Z,1.77
2023-08-26T17:40:27.705Z,2.35
2023-08-26T17:43:31.890Z,2.30
2023-08-26T17:46:34.138Z,1.40
2023-08-26T17:49:36.501Z,1.73
2023-08-26T17:52:38.638Z,1.90
2023-08-26T17:55:40.845Z,1.65
2023-08-26T17:58:43.862Z,1.73
2023-08-26T18:01:46.022Z,1.80
2023-08-26T18:04:49.128Z,0.87
2023-08-26T18:07:52.196Z,1.60
2023-08-26T18:10:54.309Z,1.15
2023-08-26T18:13:56.441Z,1.75
2023-08-26T18:16:58.585Z,1.30
2023-08-26T18:20:01.189Z,2.28
2023-08-26T18:23:04.546Z,1.38
2023-08-26T18:26:06.660Z,1.67
2023-08-26T18:29:08.859Z,1.35
2023-08-26T18:32:12.523Z,1.33
2023-08-26T18:35:15.091Z,0.73
2023-08-26T18:38:22.759Z,1.35
2023-08-26T18:41:24.880Z,1.83
2023-08-26T18:44:26.897Z,1.40
2023-08-26T18:47:29.074Z,1.35
2023-08-26T18:50:31.194Z,1.48
2023-08-26T18:53:33.730Z,1.95
2023-08-26T18:56:35.896Z,2.10
2023-08-26T18:59:38.018Z,2.17
2023-08-26T19:02:40.297Z,3.47
2023-08-26T19:05:45.749Z,2.13
2023-08-26T19:08:47.908Z,2.28
2023-08-26T19:11:50.092Z,1.35
2023-08-26T19:14:52.285Z,1.50
2023-08-26T19:17:55.235Z,2.35
2023-08-26T19:20:57.330Z,1.58
2023-08-26T19:24:00.202Z,2.40
2023-08-26T19:27:03.146Z,1.63
2023-08-26T19:30:06.245Z,2.50
2023-08-26T19:33:08.700Z,1.65
2023-08-26T19:36:11.004Z,2.50
2023-08-26T19:39:13.778Z,1.40
2023-08-26T19:42:15.865Z,1.98
2023-08-26T19:45:19.650Z,2.83
2023-08-26T19:48:21.775Z,1.98
2023-08-26T19:51:25.608Z,2.20
2023-08-26T19:54:27.746Z,1.77
2023-08-26T19:57:30.602Z,2.45
2023-08-26T20:00:32.849Z,1.85
2023-08-26T20:03:35.035Z,2.22
2023-08-26T20:06:37.172Z,1.58
2023-08-26T20:09:39.274Z,2.83
2023-08-26T20:12:41.449Z,2.15
2023-08-26T20:15:43.554Z,1.80
2023-08-26T20:18:45.673Z,1.55
2023-08-26T20:21:51.077Z,2.92
2023-08-26T20:24:58.640Z,1.65
2023-08-26T20:28:00.755Z,1.95
2023-08-26T20:31:05.979Z,1.60
2023-08-26T20:34:08.199Z,1.77
2023-08-26T20:37:11.512Z,3.05
2023-08-26T20:40:13.623Z,2.97
2023-08-26T20:43:15.750Z,2.88
2023-08-26T20:46:17.905Z,1.77
2023-08-26T20:49:20.309Z,1.55
2023-08-26T20:52:22.442Z,3.40
2023-08-26T20:55:24.704Z,1.70
2023-08-26T20:58:26.823Z,1.65
2023-08-26T21:01:29.049Z,1.85
2023-08-26T21:04:31.117Z,1.73
2023-08-26T21:07:33.229Z,1.83
2023-08-26T21:10:35.320Z,1.92
2023-08-26T21:13:39.760Z,2.28
2023-08-26T21:16:41.954Z,2.03
2023-08-26T21:19:44.172Z,3.03
2023-08-26T21:22:46.351Z,1.77
2023-08-26T21:25:55.530Z,3.90
2023-08-26T21:28:57.806Z,2.00
2023-08-26T21:31:59.972Z,2.92
2023-08-26T21:35:02.368Z,2.17
2023-08-26T21:38:04.638Z,3.30
2023-08-26T21:41:07.204Z,2.60
2023-08-26T21:44:09.272Z,2.17
2023-08-26T21:47:11.409Z,1.85
2023-08-26T21:50:13.790Z,2.08
2023-08-26T21:53:15.954Z,2.25
2023-08-26T21:56:18.348Z,2.50
2023-08-26T21:59:20.586Z,2.30
2023-08-26T22:02:22.887Z,2.25
2023-08-26T22:05:38.811Z,2.10
2023-08-26T22:08:43.169Z,2.22
2023-08-26T22:11:45.373Z,2.13
2023-08-26T22:14:47.645Z,1.95
2023-08-26T22:17:50.429Z,2.10
2023-08-26T22:20:53.522Z,1.50
2023-08-26T22:23:55.703Z,1.95
2023-08-26T22:26:57.763Z,2.15
2023-08-26T22:29:59.946Z,1.88
2023-08-26T22:33:02.581Z,1.40
2023-08-26T22:36:05.134Z,1.90
2023-08-26T22:39:18.828Z,1.40
2023-08-26T22:42:22.315Z,1.92
2023-08-26T22:45:24.441Z,2.75
2023-08-26T22:48:26.608Z,1.00
2023-08-26T22:51:28.726Z,1.52
2023-08-26T22:54:30.801Z,1.67
2023-08-26T22:57:32.933Z,1.50
2023-08-26T23:00:35.489Z,1.73
2023-08-26T23:03:37.619Z,1.95
2023-08-26T23:06:41.153Z,2.15
2023-08-26T23:09:43.594Z,1.50
2023-08-26T23:12:46.270Z,1.92
2023-08-26T23:15:48.691Z,1.92
2023-08-26T23:18:50.961Z,1.58
2023-08-26T23:21:54.584Z,1.20
2023-08-26T23:24:56.972Z,1.33
2023-08-26T23:27:59.031Z,1.80
2023-08-26T23:31:05.080Z,1.42
2023-08-26T23:34:17.883Z,1.45
2023-08-26T23:37:20.991Z,2.25
2023-08-26T23:40:23.078Z,2.22
2023-08-26T23:43:25.755Z,1.67
2023-08-26T23:46:27.868Z,1.73
2023-08-26T23:49:29.943Z,3.00
2023-08-26T23:52:32.102Z,2.03
2023-08-26T23:55:34.137Z,2.22
2023-08-26T23:58:36.279Z,1.75
